Time;durP1;ratioP1;P1;durP2;ratioP2;P2;SDS_P1;SDS_P2;PMS_P1;PMS_P2;Temp;Humidity;BMP_temperature;BMP_pressure;BME280_temperature;BME280_humidity;BME280_pressure;Samples;Min_cycle;Max_cycle;Signal;HPM_P1;HPM_P2
2022/09/30 00:01:49;;;;;;;11.60;10.20;;;;;;;9.05;94.37;97075.05;105479;1287;24298;-82
2022/09/30 00:04:23;;;;;;;14.40;10.90;;;;;;;9.07;94.35;97076.76;105215;1288;24420;-82
2022/09/30 00:06:52;;;;;;;10.20;9.10;;;;;;;9.11;94.28;97070.76;105393;1287;22727;-82
2022/09/30 00:09:20;;;;;;;10.90;9.80;;;;;;;9.15;94.56;97071.66;105427;1287;25543;-82
2022/09/30 00:11:48;;;;;;;10.70;9.60;;;;;;;9.20;94.12;97063.21;105427;1287;25263;-84
2022/09/30 00:14:21;;;;;;;11.00;9.30;;;;;;;9.23;94.81;97065.01;105427;1287;24240;-83
2022/09/30 00:16:49;;;;;;;10.90;9.80;;;;;;;9.25;94.69;97059.18;105376;1287;25365;-82
2022/09/30 00:19:17;;;;;;;10.60;9.30;;;;;;;9.27;94.49;97052.81;105324;1287;25648;-81
2022/09/30 00:21:45;;;;;;;11.00;9.10;;;;;;;9.28;94.95;97049.55;105351;1287;22551;-81
2022/09/30 00:24:13;;;;;;;10.50;9.00;;;;;;;9.29;94.94;97052.31;105387;1287;22680;-78
2022/09/30 00:26:41;;;;;;;10.40;8.80;;;;;;;9.32;94.97;97052.92;105480;1288;24274;-79
2022/09/30 00:29:10;;;;;;;10.90;9.10;;;;;;;9.36;94.81;97053.52;104936;1287;23999;-81
2022/09/30 00:31:38;;;;;;;9.80;8.40;;;;;;;9.38;94.55;97055.28;105475;1287;22581;-80
2022/09/30 00:34:06;;;;;;;10.50;9.40;;;;;;;9.74;97.45;97057.24;105521;1288;22927;-79
2022/09/30 00:36:47;;;;;;;9.40;7.60;;;;;;;10.30;97.18;97058.42;105556;1287;22620;-80
2022/09/30 00:39:24;;;;;;;10.60;8.50;;;;;;;10.79;97.30;97059.48;105360;1287;22774;-83
2022/09/30 00:42:00;;;;;;;10.70;9.40;;;;;;;11.11;94.93;97052.43;105483;1287;23106;-82
2022/09/30 00:44:53;;;;;;;11.30;10.10;;;;;;;10.95;93.86;97053.59;105480;1287;23614;-83
2022/09/30 00:47:36;;;;;;;11.10;10.00;;;;;;;10.71;94.01;97051.36;105464;1287;24470;-83
2022/09/30 00:50:13;;;;;;;13.60;10.30;;;;;;;10.48;93.91;97058.21;105500;1287;22614;-82
2022/09/30 00:52:44;;;;;;;10.70;9.30;;;;;;;10.28;94.03;97061.56;105491;1287;22704;-83
2022/09/30 00:55:30;;;;;;;10.40;9.40;;;;;;;10.17;93.88;97065.81;105244;1288;22618;-82
2022/09/30 00:58:00;;;;;;;11.70;9.30;;;;;;;10.07;94.09;97071.45;105440;1287;24391;-84
2022/09/30 01:00:29;;;;;;;10.80;9.60;;;;;;;10.00;94.28;97078.53;105492;1287;23140;-84
2022/09/30 01:02:57;;;;;;;11.60;10.10;;;;;;;9.95;94.42;97087.08;105477;1288;22534;-84
2022/09/30 01:05:26;;;;;;;13.40;11.00;;;;;;;9.89;94.59;97086.89;105480;1287;22593;-85
2022/09/30 01:07:57;;;;;;;11.70;10.50;;;;;;;9.84;94.25;97090.75;105192;1287;22682;-84
2022/09/30 01:10:25;;;;;;;12.00;10.80;;;;;;;9.80;94.32;97091.41;105284;1287;22668;-84
2022/09/30 01:12:54;;;;;;;12.30;11.00;;;;;;;9.79;94.33;97088.15;105094;1288;22559;-83
2022/09/30 01:15:43;;;;;;;13.10;11.80;;;;;;;9.77;94.29;97085.08;105440;1287;22563;-86
2022/09/30 01:18:37;;;;;;;13.90;11.70;;;;;;;9.75;94.68;97081.08;105423;1287;22558;-83
2022/09/30 01:21:33;;;;;;;13.80;12.60;;;;;;;9.70;94.33;97079.73;105492;1288;24309;-83
2022/09/30 01:24:13;;;;;;;12.80;11.70;;;;;;;9.65;94.35;97072.58;105445;1287;22704;-85
2022/09/30 01:26:40;;;;;;;12.50;11.30;;;;;;;9.63;94.49;97069.74;105448;1288;22551;-86
2022/09/30 01:29:08;;;;;;;12.60;11.40;;;;;;;9.64;94.52;97073.67;105417;1287;22578;-84
2022/09/30 01:32:01;;;;;;;12.70;11.30;;;;;;;9.65;94.96;97076.50;105482;1287;23908;-83
2022/09/30 01:35:14;;;;;;;13.40;12.10;;;;;;;9.64;94.95;97078.94;105560;1287;25401;-84
2022/09/30 01:37:53;;;;;;;14.50;13.20;;;;;;;9.61;95.19;97078.54;105282;1288;23527;-85
2022/09/30 01:41:02;;;;;;;13.70;12.50;;;;;;;9.56;94.94;97085.94;105544;1286;22785;-85
2022/09/30 01:43:50;;;;;;;13.90;12.50;;;;;;;9.53;95.34;97091.05;105597;1287;24275;-85
2022/09/30 01:46:48;;;;;;;12.90;11.80;;;;;;;9.53;95.26;97096.66;105547;1287;22644;-85
2022/09/30 01:49:15;;;;;;;14.10;12.40;;;;;;;9.53;95.19;97095.59;105520;1287;23306;-84
2022/09/30 01:52:16;;;;;;;14.70;13.20;;;;;;;9.54;95.58;97091.75;105537;1287;22713;-84
2022/09/30 01:55:27;;;;;;;12.30;11.10;;;;;;;9.56;95.73;97087.98;105389;1288;22585;-84
2022/09/30 01:58:06;;;;;;;12.90;11.70;;;;;;;9.57;95.91;97085.81;105447;1285;22816;-85
2022/09/30 02:00:39;;;;;;;13.40;12.10;;;;;;;9.56;96.10;97083.30;105105;1287;24280;-85
2022/09/30 02:03:15;;;;;;;15.80;12.80;;;;;;;9.52;96.11;97079.16;105374;1287;22566;-85
2022/09/30 02:05:54;;;;;;;13.70;12.40;;;;;;;9.52;95.79;97080.86;105401;1287;22589;-84
2022/09/30 02:08:43;;;;;;;12.60;11.40;;;;;;;9.54;96.15;97084.23;105422;1287;25471;-84
2022/09/30 02:11:24;;;;;;;12.40;11.20;;;;;;;9.55;96.19;97085.41;105450;1287;24001;-84
2022/09/30 02:13:59;;;;;;;13.50;12.30;;;;;;;9.58;96.33;97089.38;105401;1288;25443;-84
2022/09/30 02:16:47;;;;;;;;;;;;;;;9.58;96.45;97089.45;105423;1287;22477;-83
2022/09/30 02:19:21;;;;;;;13.20;11.90;;;;;;;9.55;96.66;97085.42;105351;1287;24275;-85
2022/09/30 02:21:59;;;;;;;12.60;11.40;;;;;;;9.52;96.97;97086.20;105375;1287;22776;-85
2022/09/30 02:24:35;;;;;;;11.40;10.20;;;;;;;9.51;97.01;97087.69;105359;1287;22883;-83
2022/09/30 02:27:10;;;;;;;11.00;9.80;;;;;;;9.50;96.91;97085.66;105399;1287;24191;-85
2022/09/30 02:29:44;;;;;;;12.60;9.70;;;;;;;9.53;96.86;97086.95;105473;1288;22639;-85
2022/09/30 02:32:21;;;;;;;10.60;9.50;;;;;;;9.56;97.13;97084.38;105379;1287;26524;-83
2022/09/30 02:34:56;;;;;;;11.20;10.10;;;;;;;9.59;97.03;97082.20;105432;1287;22885;-85
2022/09/30 02:37:30;;;;;;;10.60;9.50;;;;;;;9.59;97.32;97081.92;105443;1287;25175;-85
2022/09/30 02:40:04;;;;;;;10.40;9.40;;;;;;;9.58;97.03;97081.54;105483;1287;24295;-85
2022/09/30 02:42:32;;;;;;;10.60;9.30;;;;;;;9.59;97.19;97084.29;105522;1287;22699;-84
2022/09/30 02:45:15;;;;;;;10.30;9.30;;;;;;;9.60;96.75;97080.98;105163;1288;26500;-85
2022/09/30 02:48:18;;;;;;;10.90;9.80;;;;;;;9.64;97.53;97078.17;105497;1287;25405;-84
2022/09/30 02:50:51;;;;;;;10.50;9.50;;;;;;;9.62;97.58;97080.01;105452;1288;24104;-84
2022/09/30 02:53:29;;;;;;;11.20;10.10;;;;;;;9.61;97.30;97078.00;105465;1287;22722;-84
2022/09/30 02:56:38;;;;;;;12.20;11.10;;;;;;;9.59;97.37;97084.30;105510;1287;22708;-85
2022/09/30 02:59:06;;;;;;;11.70;10.60;;;;;;;9.53;97.33;97089.17;104499;1294;22735;-85
2022/09/30 03:01:34;;;;;;;11.60;10.40;;;;;;;9.53;97.11;97088.12;104612;1294;23927;-83
2022/09/30 03:04:05;;;;;;;11.10;10.00;;;;;;;9.56;97.33;97088.69;104647;1294;25461;-83
2022/09/30 03:06:35;;;;;;;11.70;10.60;;;;;;;9.56;97.66;97088.02;104651;1294;25326;-84
2022/09/30 03:09:04;;;;;;;11.80;10.60;;;;;;;9.58;97.95;97091.70;104696;1294;22592;-84
2022/09/30 03:11:32;;;;;;;12.80;11.20;;;;;;;9.59;97.51;97094.10;104628;1293;22579;-84
2022/09/30 03:14:16;;;;;;;12.00;10.90;;;;;;;9.60;97.74;97093.56;104593;1293;24239;-84
2022/09/30 03:16:53;;;;;;;12.90;11.70;;;;;;;9.60;97.65;97099.45;104601;1294;22714;-84
2022/09/30 03:19:35;;;;;;;12.10;11.10;;;;;;;9.59;97.72;97105.87;104597;1293;22802;-84
2022/09/30 03:22:18;;;;;;;12.20;11.10;;;;;;;9.61;97.74;97111.29;104614;1294;24589;-83
2022/09/30 03:24:54;;;;;;;13.40;11.60;;;;;;;9.64;97.48;97106.75;104619;1293;25290;-84
2022/09/30 03:27:33;;;;;;;12.80;11.60;;;;;;;9.66;97.71;97110.84;104590;1293;22552;-83
2022/09/30 03:30:09;;;;;;;13.30;12.10;;;;;;;9.67;97.64;97111.40;104591;1294;22705;-82
2022/09/30 03:33:14;;;;;;;13.90;12.70;;;;;;;9.67;97.66;97108.21;104697;1294;22702;-83
2022/09/30 03:36:00;;;;;;;13.60;12.30;;;;;;;9.68;97.57;97103.70;105280;1287;22562;-84
2022/09/30 03:38:37;;;;;;;12.90;11.60;;;;;;;9.69;97.91;97107.75;105493;1287;22582;-83
2022/09/30 03:41:24;;;;;;;13.30;12.00;;;;;;;9.69;97.76;97108.29;105498;1287;25319;-84
2022/09/30 03:44:01;;;;;;;13.90;12.40;;;;;;;9.71;97.87;97106.24;105512;1287;22635;-83
2022/09/30 03:46:40;;;;;;;13.80;12.60;;;;;;;9.71;97.62;97107.78;105474;1287;22546;-83
2022/09/30 03:49:13;;;;;;;14.00;12.70;;;;;;;9.70;97.89;97106.80;105419;1287;22571;-84
2022/09/30 03:51:41;;;;;;;13.30;12.00;;;;;;;9.70;97.65;97111.73;105450;1288;22588;-84
2022/09/30 03:54:12;;;;;;;14.00;12.60;;;;;;;9.70;97.67;97113.95;105467;1288;22543;-84
2022/09/30 03:56:43;;;;;;;13.20;12.00;;;;;;;9.71;97.66;97116.14;105668;1287;22714;-84
2022/09/30 03:59:19;;;;;;;14.20;12.40;;;;;;;9.73;97.90;97117.09;105542;1287;22767;-83
2022/09/30 04:01:47;;;;;;;13.20;11.80;;;;;;;9.72;97.70;97124.43;105457;1287;24137;-83
2022/09/30 04:04:15;;;;;;;14.00;12.70;;;;;;;9.77;97.76;97129.27;105470;1287;22539;-84
2022/09/30 04:06:43;;;;;;;14.60;13.30;;;;;;;9.77;98.04;97130.13;105495;1287;22785;-83
2022/09/30 04:09:11;;;;;;;14.80;13.40;;;;;;;9.74;98.01;97134.16;105461;1287;22785;-84
2022/09/30 04:11:39;;;;;;;14.60;13.10;;;;;;;9.75;98.01;97138.66;105450;1287;22620;-84
2022/09/30 04:14:07;;;;;;;14.10;12.50;;;;;;;9.79;98.04;97139.30;105459;1287;23233;-84
2022/09/30 04:16:35;;;;;;;13.80;12.30;;;;;;;9.82;97.92;97138.05;105172;1288;24386;-84
2022/09/30 04:19:03;;;;;;;13.70;12.50;;;;;;;9.84;97.84;97136.74;105498;1287;24562;-84
2022/09/30 04:21:31;;;;;;;13.20;12.00;;;;;;;9.87;97.83;97139.11;105459;1287;22573;-84
2022/09/30 04:23:59;;;;;;;14.40;12.90;;;;;;;9.83;98.04;97144.94;105422;1287;22551;-83
2022/09/30 04:26:27;;;;;;;14.10;12.80;;;;;;;9.84;98.11;97150.90;105452;1287;25318;-83
2022/09/30 04:28:57;;;;;;;12.90;11.80;;;;;;;9.85;97.87;97151.56;105359;1288;22784;-84
2022/09/30 04:31:25;;;;;;;13.40;12.00;;;;;;;9.87;98.04;97149.48;105326;1287;25397;-84
2022/09/30 04:33:55;;;;;;;14.50;13.20;;;;;;;9.88;97.79;97148.55;104949;1288;22573;-85
2022/09/30 04:36:23;;;;;;;15.10;13.80;;;;;;;9.87;97.73;97154.43;105126;1287;22560;-84
2022/09/30 04:38:52;;;;;;;14.60;13.20;;;;;;;9.86;97.78;97157.98;105357;1287;22721;-82
2022/09/30 04:41:20;;;;;;;14.40;13.20;;;;;;;9.88;98.16;97157.06;105372;1287;24267;-84
2022/09/30 04:43:48;;;;;;;14.40;13.20;;;;;;;9.90;98.25;97156.48;105018;1288;22558;-84
2022/09/30 04:46:19;;;;;;;15.50;14.20;;;;;;;9.92;97.81;97150.35;105383;1287;22711;-83
2022/09/30 04:48:47;;;;;;;16.10;14.60;;;;;;;9.94;97.77;97158.05;105366;1287;22677;-84
2022/09/30 04:51:20;;;;;;;16.50;15.10;;;;;;;9.94;97.97;97156.28;105438;1287;24037;-82
2022/09/30 04:53:49;;;;;;;16.30;14.80;;;;;;;9.91;97.87;97161.61;105399;1287;22550;-83
2022/09/30 04:56:17;;;;;;;15.50;14.20;;;;;;;9.91;98.13;97157.17;105405;1287;24264;-82
2022/09/30 04:58:45;;;;;;;16.40;14.90;;;;;;;9.90;97.98;97151.17;105344;1288;22585;-86
2022/09/30 05:01:16;;;;;;;16.40;15.00;;;;;;;9.91;98.02;97145.17;105395;1287;24311;-83
2022/09/30 05:03:44;;;;;;;17.10;15.70;;;;;;;9.93;98.06;97143.77;105000;1289;23367;-86
2022/09/30 05:06:13;;;;;;;17.70;16.00;;;;;;;9.93;97.86;97140.48;105441;1287;25411;-85
2022/09/30 05:08:44;;;;;;;16.60;15.20;;;;;;;9.92;97.71;97143.27;105368;1287;25241;-84
2022/09/30 05:11:19;;;;;;;16.60;14.90;;;;;;;9.91;98.10;97148.16;105408;1287;22572;-84
2022/09/30 05:13:47;;;;;;;20.10;18.50;;;;;;;9.92;97.74;97158.12;105284;1287;22743;-83
2022/09/30 05:16:17;;;;;;;16.00;14.60;;;;;;;9.91;97.88;97157.65;105353;1287;23230;-84
2022/09/30 05:18:45;;;;;;;16.70;15.30;;;;;;;9.90;98.19;97161.49;105387;1287;22685;-85
2022/09/30 05:21:16;;;;;;;17.20;15.70;;;;;;;9.89;98.34;97159.15;105447;1287;24939;-86
2022/09/30 05:23:44;;;;;;;16.80;15.30;;;;;;;9.90;98.47;97168.23;105345;1287;25313;-85
2022/09/30 05:26:13;;;;;;;16.30;14.90;;;;;;;9.89;98.46;97166.30;105391;1287;25377;-84
2022/09/30 05:28:41;;;;;;;14.80;13.60;;;;;;;9.91;98.27;97167.68;105395;1287;25257;-83
2022/09/30 05:31:12;;;;;;;15.70;14.30;;;;;;;9.92;98.48;97169.04;105351;1287;22791;-84
2022/09/30 05:33:40;;;;;;;17.30;15.80;;;;;;;9.93;98.25;97167.45;105374;1287;22846;-84
2022/09/30 05:36:12;;;;;;;16.30;14.90;;;;;;;9.92;98.17;97171.83;105314;1287;22733;-85
2022/09/30 05:38:41;;;;;;;17.20;15.80;;;;;;;9.93;98.44;97172.08;105095;1287;25436;-84
2022/09/30 05:41:12;;;;;;;15.50;14.20;;;;;;;9.96;98.49;97175.21;105415;1287;22583;-85
2022/09/30 05:43:44;;;;;;;14.80;13.50;;;;;;;9.98;98.23;97175.48;105481;1287;22667;-86
2022/09/30 05:46:17;;;;;;;15.50;14.00;;;;;;;10.01;98.47;97176.48;105546;1287;23467;-84
2022/09/30 05:48:46;;;;;;;14.90;13.60;;;;;;;10.04;98.20;97175.22;105196;1287;22588;-86
2022/09/30 05:51:14;;;;;;;15.90;14.40;;;;;;;10.07;98.42;97177.73;105299;1287;22727;-86
2022/09/30 05:53:42;;;;;;;15.90;14.50;;;;;;;10.08;98.41;97177.30;105032;1287;25247;-83
2022/09/30 05:56:10;;;;;;;14.40;13.00;;;;;;;10.09;98.50;97173.61;105272;1287;25349;-84
2022/09/30 05:58:41;;;;;;;15.30;14.00;;;;;;;10.13;98.47;97175.48;105321;1287;25594;-86
2022/09/30 06:01:11;;;;;;;15.00;13.60;;;;;;;10.16;98.38;97173.24;105045;1288;22588;-85
2022/09/30 06:03:43;;;;;;;15.50;14.00;;;;;;;10.22;98.54;97181.27;105174;1287;25251;-84
2022/09/30 06:06:12;;;;;;;20.10;13.90;;;;;;;10.24;98.60;97181.00;105351;1287;22625;-83
2022/09/30 06:08:42;;;;;;;14.60;13.20;;;;;;;10.26;98.68;97182.45;105314;1287;22572;-84
2022/09/30 06:11:13;;;;;;;15.50;13.90;;;;;;;10.26;98.58;97184.48;105009;1288;23010;-84
2022/09/30 06:13:42;;;;;;;14.30;13.00;;;;;;;10.31;98.59;97183.95;105388;1287;25247;-83
2022/09/30 06:16:11;;;;;;;13.80;12.60;;;;;;;10.36;98.46;97183.42;105006;1287;25950;-84
2022/09/30 06:18:40;;;;;;;24.00;14.20;;;;;;;10.39;98.39;97188.71;105263;1287;24335;-85
2022/09/30 06:21:12;;;;;;;141.40;22.80;;;;;;;10.42;98.58;97187.70;105266;1288;25259;-84
2022/09/30 06:23:41;;;;;;;272.30;36.00;;;;;;;10.44;98.64;97191.25;105301;1288;22570;-84
2022/09/30 06:26:10;;;;;;;52.80;17.10;;;;;;;10.45;98.58;97192.31;105016;1287;24644;-86
2022/09/30 06:28:39;;;;;;;66.80;17.70;;;;;;;10.47;98.42;97192.79;105408;1287;24205;-86
2022/09/30 06:31:08;;;;;;;15.30;12.60;;;;;;;10.49;98.41;97193.92;105354;1287;22771;-83
2022/09/30 06:33:36;;;;;;;16.60;12.30;;;;;;;10.49;98.77;97192.41;105380;1288;24229;-85
2022/09/30 06:36:05;;;;;;;150.80;22.40;;;;;;;10.50;98.43;97196.11;105332;1287;25249;-84
2022/09/30 06:38:35;;;;;;;68.10;17.30;;;;;;;10.55;99.48;97195.14;105372;1287;22606;-89
2022/09/30 06:41:04;;;;;;;27.40;13.40;;;;;;;11.04;100.00;97197.61;105569;1287;22566;-88
2022/09/30 06:43:33;;;;;;;417.50;41.60;;;;;;;11.66;100.00;97200.27;105115;1287;22554;-88
2022/09/30 06:46:11;;;;;;;17.80;10.80;;;;;;;12.03;100.00;97201.85;105472;1287;22771;-90
2022/09/30 06:48:53;;;;;;;385.20;44.20;;;;;;;12.49;100.00;97198.25;105172;1287;24518;-89
2022/09/30 06:51:36;;;;;;;68.10;16.90;;;;;;;13.11;100.00;97198.14;105473;1287;26682;-89
2022/09/30 06:54:04;;;;;;;82.80;16.70;;;;;;;13.46;100.00;97196.84;105201;1288;24271;-88
2022/09/30 06:56:31;;;;;;;93.90;18.20;;;;;;;13.69;100.00;97198.67;105263;1287;25347;-86
2022/09/30 06:59:00;;;;;;;27.10;10.10;;;;;;;13.87;100.00;97202.45;105500;1287;22570;-88
2022/09/30 07:01:28;;;;;;;17.60;9.90;;;;;;;14.18;99.88;97203.21;105486;1287;22582;-84
2022/09/30 07:03:56;;;;;;;14.50;9.30;;;;;;;14.20;98.63;97204.65;105208;1287;24305;-83
2022/09/30 07:06:25;;;;;;;17.20;9.90;;;;;;;14.18;99.07;97207.41;105595;1287;22557;-87
2022/09/30 07:08:55;;;;;;;9.20;8.00;;;;;;;14.21;98.53;97209.66;105262;1288;22554;-85
2022/09/30 07:11:24;;;;;;;12.70;8.00;;;;;;;14.40;98.87;97211.59;105607;1287;22678;-84
2022/09/30 07:13:52;;;;;;;11.10;8.80;;;;;;;14.37;97.29;97212.48;105482;1287;23224;-89
2022/09/30 07:16:20;;;;;;;9.00;8.00;;;;;;;14.39;96.44;97214.00;105102;1288;24214;-88
2022/09/30 07:18:53;;;;;;;10.90;8.30;;;;;;;14.53;97.12;97216.48;105310;1287;23994;-93
2022/09/30 07:21:20;;;;;;;9.70;8.20;;;;;;;14.60;96.33;97220.56;105191;1290;24072;-91
2022/09/30 07:23:49;;;;;;;9.10;8.20;;;;;;;14.61;96.05;97224.69;105792;1287;23068;-93
2022/09/30 07:26:44;;;;;;;8.30;7.50;;;;;;;14.85;96.11;97224.02;105825;1287;22771;-91
2022/09/30 07:29:12;;;;;;;8.80;7.90;;;;;;;15.15;94.78;97223.79;105743;1287;22561;-88
2022/09/30 07:31:40;;;;;;;10.30;9.30;;;;;;;15.06;92.68;97224.99;106002;1287;25257;-90
2022/09/30 07:34:08;;;;;;;10.80;9.60;;;;;;;14.49;91.84;97223.79;105348;1287;23870;-89
2022/09/30 07:36:40;;;;;;;10.90;9.90;;;;;;;13.85;91.28;97229.92;105603;1287;25442;-89
2022/09/30 07:39:08;;;;;;;10.70;9.60;;;;;;;13.31;91.66;97227.67;105547;1287;22584;-86
2022/09/30 07:41:43;;;;;;;10.00;9.10;;;;;;;12.91;92.27;97228.31;105411;1288;22565;-87
2022/09/30 07:44:13;;;;;;;10.20;9.20;;;;;;;12.57;92.66;97229.70;105782;1287;23872;-87
2022/09/30 07:46:44;;;;;;;10.50;9.50;;;;;;;12.31;92.80;97231.66;105642;1287;22604;-86
2022/09/30 07:49:22;;;;;;;11.70;10.50;;;;;;;12.09;92.99;97238.11;105833;1287;22722;-88
2022/09/30 07:51:57;;;;;;;11.10;9.70;;;;;;;11.91;93.04;97235.86;105578;1287;24326;-82
2022/09/30 07:54:28;;;;;;;11.40;10.30;;;;;;;11.71;93.13;97241.10;105417;1287;22631;-83
2022/09/30 07:56:57;;;;;;;10.60;9.60;;;;;;;11.53;92.92;97242.58;105462;1287;22612;-80
2022/09/30 07:59:41;;;;;;;11.10;10.00;;;;;;;11.41;93.56;97245.08;105430;1287;25206;-82
2022/09/30 08:02:16;;;;;;;10.80;9.50;;;;;;;11.35;93.49;97249.21;105206;1287;22560;-82
2022/09/30 08:04:45;;;;;;;;;;;;;;;11.30;93.46;97251.37;105062;1287;25289;-82
2022/09/30 08:07:16;;;;;;;12.00;11.00;;;;;;;11.23;93.63;97254.84;105486;1287;23841;-83
2022/09/30 08:09:44;;;;;;;11.80;10.80;;;;;;;11.16;93.61;97254.16;105526;1287;22555;-82
2022/09/30 08:12:12;;;;;;;11.90;10.70;;;;;;;11.09;93.64;97252.94;105195;1288;24283;-81
2022/09/30 08:14:40;;;;;;;13.20;11.50;;;;;;;11.06;93.73;97250.66;105497;1287;22544;-82
2022/09/30 08:17:08;;;;;;;12.20;11.10;;;;;;;11.09;93.88;97256.24;105463;1287;25450;-82
2022/09/30 08:19:35;;;;;;;11.50;10.50;;;;;;;11.11;93.88;97251.38;105527;1287;22719;-82
2022/09/30 08:22:05;;;;;;;11.60;10.50;;;;;;;11.12;93.77;97256.05;104903;1288;25255;-84
2022/09/30 08:24:33;;;;;;;12.70;11.50;;;;;;;11.12;93.88;97258.84;105564;1287;23238;-87
2022/09/30 08:27:01;;;;;;;12.50;11.40;;;;;;;11.12;93.85;97262.84;105618;1287;22547;-84
2022/09/30 08:29:29;;;;;;;12.30;11.10;;;;;;;11.11;94.10;97263.12;105655;1287;24289;-84
2022/09/30 08:32:17;;;;;;;12.50;11.30;;;;;;;11.16;93.87;97267.25;105642;1287;23393;-85
2022/09/30 08:34:45;;;;;;;12.90;11.60;;;;;;;11.17;94.12;97270.21;105316;1287;22589;-86
2022/09/30 08:37:13;;;;;;;13.40;12.10;;;;;;;11.18;94.15;97267.66;105433;1287;22717;-85
2022/09/30 08:39:42;;;;;;;13.20;12.00;;;;;;;11.17;94.27;97269.80;105410;1287;22742;-88
2022/09/30 08:42:17;;;;;;;11.80;10.80;;;;;;;11.18;94.42;97267.56;105543;1287;25360;-86
2022/09/30 08:45:19;;;;;;;12.00;10.90;;;;;;;11.20;94.39;97265.02;105471;1287;23212;-86
2022/09/30 08:47:56;;;;;;;12.50;11.20;;;;;;;11.20;94.33;97266.61;105175;1288;23206;-84
2022/09/30 08:50:42;;;;;;;12.60;11.40;;;;;;;11.23;94.30;97268.41;105538;1287;22571;-87
2022/09/30 08:53:26;;;;;;;13.10;11.90;;;;;;;11.27;94.57;97269.38;106031;1275;22770;-89
2022/09/30 08:55:56;;;;;;;14.70;13.30;;;;;;;11.26;94.67;97268.86;105590;1287;25439;-87
2022/09/30 08:58:29;;;;;;;14.60;13.10;;;;;;;11.25;94.62;97270.20;105745;1287;22731;-87
2022/09/30 09:01:05;;;;;;;11.90;10.80;;;;;;;11.28;94.69;97266.23;105556;1288;22878;-84
2022/09/30 09:03:33;;;;;;;11.80;10.70;;;;;;;11.28;94.70;97268.94;105821;1287;23389;-87
2022/09/30 09:06:23;;;;;;;10.90;9.90;;;;;;;11.30;94.68;97270.95;105871;1287;25336;-85
2022/09/30 09:09:10;;;;;;;11.80;10.70;;;;;;;11.30;94.77;97271.27;105897;1287;24291;-84
2022/09/30 09:11:59;;;;;;;11.00;9.90;;;;;;;11.31;95.08;97270.77;105540;1287;22554;-87
2022/09/30 09:14:57;;;;;;;10.00;9.10;;;;;;;11.36;95.20;97272.05;105376;1287;22573;-88
2022/09/30 09:17:43;;;;;;;9.40;8.60;;;;;;;11.39;94.94;97275.20;105358;1287;22755;-87
2022/09/30 09:20:40;;;;;;;10.10;9.10;;;;;;;11.44;95.17;97279.73;105312;1287;22567;-84
2022/09/30 09:23:10;;;;;;;11.20;10.10;;;;;;;11.46;95.21;97280.42;105381;1287;24423;-84
2022/09/30 09:25:39;;;;;;;9.80;8.80;;;;;;;11.48;95.33;97276.69;105451;1287;22578;-87
2022/09/30 09:28:29;;;;;;;8.80;7.90;;;;;;;11.49;95.27;97283.85;105155;1287;25488;-85
2022/09/30 09:30:59;;;;;;;8.80;7.60;;;;;;;11.51;95.30;97283.81;105409;1287;22547;-84
2022/09/30 09:33:35;;;;;;;8.50;7.70;;;;;;;11.52;95.23;97286.95;105426;1287;24355;-84
2022/09/30 09:36:15;;;;;;;9.50;8.60;;;;;;;11.53;95.39;97287.42;105295;1287;25333;-86
2022/09/30 09:39:28;;;;;;;9.50;8.20;;;;;;;11.52;95.60;97284.06;105292;1287;25429;-86
2022/09/30 09:42:04;;;;;;;7.90;7.10;;;;;;;11.58;95.87;97286.91;104626;1297;22704;-87
2022/09/30 09:44:47;;;;;;;8.00;7.20;;;;;;;11.65;95.76;97287.73;104493;1297;22600;-85
2022/09/30 09:47:16;;;;;;;9.50;8.40;;;;;;;11.69;95.57;97286.73;104392;1295;22569;-84
2022/09/30 09:49:49;;;;;;;9.30;8.40;;;;;;;11.67;95.88;97290.43;104421;1297;25316;-85
2022/09/30 09:52:54;;;;;;;8.90;8.10;;;;;;;11.59;95.61;97288.30;104041;1297;24248;-86
2022/09/30 09:55:22;;;;;;;9.70;8.60;;;;;;;11.54;95.62;97291.23;104511;1297;146818;-86
2022/09/30 09:58:10;;;;;;;8.40;7.60;;;;;;;11.51;96.00;97293.84;104396;1297;22567;-87
2022/09/30 10:03:20;;;;;;;8.60;7.80;;;;;;;11.48;95.76;97296.55;104439;1297;22871;-83
2022/09/30 10:06:08;;;;;;;8.50;7.70;;;;;;;11.48;96.06;97298.33;104490;1297;26534;-85
2022/09/30 10:08:38;;;;;;;10.10;8.30;;;;;;;11.54;95.93;97303.05;104579;1297;24220;-85
2022/09/30 10:11:22;;;;;;;10.90;9.90;;;;;;;11.56;96.10;97303.08;104558;1297;22877;-84
2022/09/30 10:17:59;;;;;;;8.80;7.90;;;;;;;11.64;96.11;97305.47;105488;1287;22598;-87
2022/09/30 10:20:33;;;;;;;9.80;8.50;;;;;;;11.63;95.92;97305.45;105460;1287;22607;-84
2022/09/30 10:23:17;;;;;;;9.90;8.70;;;;;;;11.59;96.01;97307.73;105557;1287;22525;-83
2022/09/30 10:25:58;;;;;;;19.40;15.10;;;;;;;11.55;96.09;97314.98;105222;1287;22561;-86
2022/09/30 10:28:29;;;;;;;19.00;17.30;;;;;;;11.53;96.13;97315.42;105315;1287;22737;-85
2022/09/30 10:31:06;;;;;;;12.50;11.20;;;;;;;11.52;96.16;97314.47;105311;1287;22724;-85
2022/09/30 10:33:42;;;;;;;10.90;9.90;;;;;;;11.51;96.19;97316.45;105289;1287;23412;-87
2022/09/30 10:36:16;;;;;;;9.80;8.90;;;;;;;11.55;96.38;97319.14;105257;1287;24235;-86
2022/09/30 10:39:06;;;;;;;9.10;8.20;;;;;;;11.57;96.23;97319.52;105324;1288;22958;-86
2022/09/30 10:41:36;;;;;;;9.20;8.30;;;;;;;11.57;96.33;97324.95;105281;1287;25603;-85
2022/09/30 10:44:13;;;;;;;10.00;8.10;;;;;;;11.56;96.29;97326.84;105303;1290;25476;-84
2022/09/30 10:46:44;;;;;;;8.20;7.40;;;;;;;11.56;96.53;97325.59;105113;1287;24290;-84
2022/09/30 10:49:49;;;;;;;8.40;7.60;;;;;;;11.58;96.28;97329.45;105358;1287;27743;-82
2022/09/30 10:52:23;;;;;;;;;;;;;;;11.57;96.23;97336.27;105281;1287;22699;-84
2022/09/30 10:54:56;;;;;;;8.80;7.90;;;;;;;11.61;96.48;97335.61;105270;1287;25372;-83
2022/09/30 10:57:32;;;;;;;8.40;7.60;;;;;;;11.68;96.71;97340.05;104900;1291;22705;-86
2022/09/30 11:00:13;;;;;;;8.40;7.60;;;;;;;11.70;96.42;97336.35;105109;1290;22622;-83
2022/09/30 11:02:53;;;;;;;8.30;7.50;;;;;;;11.66;96.45;97338.55;105420;1288;22735;-82
2022/09/30 11:05:30;;;;;;;8.80;7.60;;;;;;;11.59;96.56;97344.21;104944;1287;24289;-84
2022/09/30 11:08:15;;;;;;;8.40;7.60;;;;;;;11.59;96.63;97341.67;105392;1287;24298;-83
2022/09/30 11:11:13;;;;;;;9.30;7.30;;;;;;;11.64;96.60;97342.65;105378;1288;22746;-82
2022/09/30 11:13:56;;;;;;;8.90;8.00;;;;;;;11.70;96.67;97347.08;105398;1287;22544;-84
2022/09/30 11:16:56;;;;;;;7.30;6.60;;;;;;;11.79;96.80;97350.86;105391;1287;22586;-83
2022/09/30 11:19:32;;;;;;;7.60;6.90;;;;;;;11.82;96.58;97351.73;105013;1287;22720;-83
2022/09/30 11:22:43;;;;;;;7.60;6.10;;;;;;;11.84;96.75;97355.56;105081;1287;22595;-83
2022/09/30 11:25:21;;;;;;;7.50;5.90;;;;;;;11.88;96.52;97356.34;105418;1287;25935;-82
2022/09/30 11:27:57;;;;;;;;;;;;;;;11.90;96.59;97359.77;105311;1287;22566;-84
2022/09/30 11:30:43;;;;;;;6.80;6.10;;;;;;;11.95;96.81;97359.66;105362;1287;22578;-82
2022/09/30 11:33:26;;;;;;;7.60;6.50;;;;;;;11.99;96.50;97359.52;105002;1287;22561;-84
2022/09/30 11:36:16;;;;;;;7.70;5.90;;;;;;;11.99;96.70;97365.46;105406;1287;24253;-85
2022/09/30 11:39:13;;;;;;;6.20;5.60;;;;;;;11.92;96.56;97365.70;105577;1287;22671;-85
2022/09/30 11:41:45;;;;;;;7.70;5.70;;;;;;;11.78;96.55;97371.03;105437;1287;22553;-85
2022/09/30 11:44:34;;;;;;;5.80;5.20;;;;;;;11.73;96.73;97369.63;105552;1287;24229;-86
2022/09/30 11:47:14;;;;;;;5.80;5.20;;;;;;;11.74;96.88;97370.94;105322;1288;22646;-84
2022/09/30 11:50:06;;;;;;;6.90;5.70;;;;;;;11.81;96.89;97372.11;105037;1287;24276;-87
2022/09/30 11:52:51;;;;;;;7.20;6.50;;;;;;;11.86;96.80;97375.78;105339;1287;24439;-83
2022/09/30 11:55:50;;;;;;;6.50;5.80;;;;;;;11.81;96.58;97375.02;105217;1287;22563;-84
2022/09/30 11:58:38;;;;;;;6.90;5.90;;;;;;;11.74;96.63;97376.80;105267;1288;25373;-83
2022/09/30 12:01:20;;;;;;;6.50;5.50;;;;;;;11.71;96.91;97377.50;105412;1287;22578;-83
2022/09/30 12:03:58;;;;;;;10.40;6.00;;;;;;;11.70;96.69;97374.91;105156;1290;24271;-83
2022/09/30 12:06:38;;;;;;;5.60;4.80;;;;;;;11.69;96.80;97380.74;105175;1287;22550;-85